createdAt,value
2022-10-24T00:02:18.380Z,98.20
2022-10-24T00:04:45.138Z,98.20
2022-10-24T00:07:11.759Z,98.10
2022-10-24T00:09:38.805Z,98.30
2022-10-24T00:12:05.853Z,98.20
2022-10-24T00:14:35.591Z,98.30
2022-10-24T00:17:02.878Z,97.70
2022-10-24T00:19:29.444Z,98.40
2022-10-24T00:21:56.110Z,98.30
2022-10-24T00:24:24.738Z,98.60
2022-10-24T00:26:52.021Z,98.70
2022-10-24T00:29:18.861Z,98.70
2022-10-24T00:31:45.472Z,98.80
2022-10-24T00:34:12.124Z,99.40
2022-10-24T00:36:38.763Z,99.90
2022-10-24T00:39:05.379Z,99.90
2022-10-24T00:41:34.842Z,99.90
2022-10-24T00:44:16.631Z,99.90
2022-10-24T00:46:46.183Z,99.90
2022-10-24T00:49:14.737Z,99.90
2022-10-24T00:51:41.883Z,99.90
2022-10-24T00:54:10.386Z,99.90
2022-10-24T00:56:45.620Z,99.90
2022-10-24T00:59:12.840Z,99.90
2022-10-24T01:01:40.221Z,99.90
2022-10-24T01:04:07.351Z,99.90
2022-10-24T01:06:37.198Z,99.90
2022-10-24T01:09:15.696Z,99.90
2022-10-24T01:11:45.276Z,99.90
2022-10-24T01:14:17.930Z,99.90
2022-10-24T01:16:44.637Z,99.90
2022-10-24T01:19:29.775Z,99.90
2022-10-24T01:22:02.900Z,99.90
2022-10-24T01:24:52.799Z,99.90
2022-10-24T01:27:19.507Z,99.90
2022-10-24T01:29:48.465Z,99.90
2022-10-24T01:32:15.393Z,99.90
2022-10-24T01:34:48.456Z,99.90
2022-10-24T01:37:19.854Z,99.90
2022-10-24T01:39:48.299Z,99.90
2022-10-24T01:42:16.461Z,99.90
2022-10-24T01:44:46.003Z,99.90
2022-10-24T01:47:16.117Z,99.90
2022-10-24T01:49:44.454Z,99.90
2022-10-24T01:54:42.060Z,99.90
2022-10-24T01:57:08.729Z,99.90
2022-10-24T01:59:38.333Z,99.90
2022-10-24T02:02:08.306Z,99.90
2022-10-24T02:04:37.550Z,99.90
2022-10-24T02:07:06.505Z,99.90
2022-10-24T02:09:34.545Z,99.90
2022-10-24T02:12:01.296Z,99.90
2022-10-24T02:14:30.171Z,99.90
2022-10-24T02:16:56.885Z,99.90
2022-10-24T02:19:23.469Z,99.90
2022-10-24T02:21:53.328Z,99.90
2022-10-24T02:24:23.448Z,99.90
2022-10-24T02:26:58.205Z,99.90
2022-10-24T02:29:27.285Z,99.90
2022-10-24T02:31:55.560Z,99.90
2022-10-24T02:34:23.806Z,99.90
2022-10-24T02:36:51.884Z,99.90
2022-10-24T02:39:19.166Z,99.90
2022-10-24T02:41:46.129Z,99.90
2022-10-24T02:44:13.791Z,99.90
2022-10-24T02:46:40.786Z,99.90
2022-10-24T02:49:07.565Z,99.90
2022-10-24T02:51:36.250Z,99.90
2022-10-24T02:54:02.882Z,99.90
2022-10-24T02:56:29.672Z,99.90
2022-10-24T02:58:56.320Z,99.90
2022-10-24T03:01:23.152Z,99.90
2022-10-24T03:03:49.879Z,99.90
2022-10-24T03:06:16.465Z,99.90
2022-10-24T03:08:43.048Z,99.90
2022-10-24T03:11:09.903Z,99.90
2022-10-24T03:13:36.617Z,99.90
2022-10-24T03:16:06.702Z,99.90
2022-10-24T03:18:35.602Z,99.90
2022-10-24T03:21:02.334Z,99.90
2022-10-24T03:23:29.129Z,99.90
2022-10-24T03:25:56.882Z,99.90
2022-10-24T03:28:24.057Z,99.90
2022-10-24T03:30:51.013Z,99.90
2022-10-24T03:33:17.808Z,99.90
2022-10-24T03:35:44.476Z,99.90
2022-10-24T03:38:11.422Z,99.90
2022-10-24T03:40:38.126Z,99.90
2022-10-24T03:43:04.800Z,99.90
2022-10-24T03:45:31.369Z,99.90
2022-10-24T03:47:58.043Z,99.90
2022-10-24T03:50:24.619Z,99.90
2022-10-24T03:52:51.240Z,99.90
2022-10-24T03:55:17.964Z,99.90
2022-10-24T03:57:44.929Z,99.90
2022-10-24T04:00:11.848Z,99.90
2022-10-24T04:02:40.277Z,99.90
2022-10-24T04:05:09.884Z,99.90
2022-10-24T04:07:36.537Z,99.90
2022-10-24T04:10:03.419Z,99.90
2022-10-24T04:12:30.009Z,99.90
2022-10-24T04:14:59.701Z,99.90
2022-10-24T04:17:29.335Z,99.90
2022-10-24T04:19:55.930Z,99.90
2022-10-24T04:22:22.655Z,99.90
2022-10-24T04:24:49.369Z,99.90
2022-10-24T04:27:15.983Z,99.90
2022-10-24T04:29:42.614Z,99.90
2022-10-24T04:32:09.210Z,99.90
2022-10-24T04:34:38.565Z,99.90
2022-10-24T04:37:05.194Z,99.90
2022-10-24T04:39:31.867Z,99.90
2022-10-24T04:41:58.587Z,99.90
2022-10-24T04:44:25.198Z,99.90
2022-10-24T04:46:51.923Z,99.90
2022-10-24T04:49:18.854Z,99.90
2022-10-24T04:51:45.460Z,99.90
2022-10-24T04:54:12.098Z,99.90
2022-10-24T04:56:38.831Z,99.90
2022-10-24T04:59:05.596Z,99.90
2022-10-24T05:01:32.314Z,99.90
2022-10-24T05:03:59.015Z,99.90
2022-10-24T05:06:25.715Z,99.90
2022-10-24T05:08:52.383Z,99.90
2022-10-24T05:11:19.052Z,99.90
2022-10-24T05:13:45.739Z,99.90
2022-10-24T05:16:12.324Z,99.90
2022-10-24T05:18:38.960Z,99.90
2022-10-24T05:21:05.677Z,99.90
2022-10-24T05:23:32.321Z,99.90
2022-10-24T05:25:59.045Z,99.90
2022-10-24T05:28:25.615Z,99.90
2022-10-24T05:30:52.325Z,99.90
2022-10-24T05:33:18.974Z,99.90
2022-10-24T05:35:45.852Z,99.90
2022-10-24T05:38:12.527Z,99.90
2022-10-24T05:40:39.196Z,99.90
2022-10-24T05:43:05.840Z,99.90
2022-10-24T05:45:32.489Z,99.90
2022-10-24T05:47:59.274Z,99.90
2022-10-24T05:50:27.030Z,99.90
2022-10-24T05:52:53.797Z,99.90
2022-10-24T05:55:20.442Z,99.90
2022-10-24T05:57:49.284Z,99.90
2022-10-24T06:00:16.743Z,99.90
2022-10-24T06:02:44.009Z,99.90
2022-10-24T06:05:11.123Z,99.90
2022-10-24T06:07:38.011Z,99.90
2022-10-24T06:10:05.598Z,99.90
2022-10-24T06:12:32.963Z,99.90
2022-10-24T06:15:00.059Z,99.90
2022-10-24T06:17:26.724Z,99.90
2022-10-24T06:19:53.304Z,99.90
2022-10-24T06:22:20.331Z,99.90
2022-10-24T06:24:46.898Z,99.90
2022-10-24T06:27:13.696Z,99.90
2022-10-24T06:29:40.376Z,99.90
2022-10-24T06:32:07.040Z,99.90
2022-10-24T06:34:33.746Z,99.90
2022-10-24T06:37:00.319Z,99.90
2022-10-24T06:39:26.939Z,99.90
2022-10-24T06:41:53.519Z,99.90
2022-10-24T06:44:20.136Z,99.90
2022-10-24T06:46:46.705Z,99.90
2022-10-24T06:49:13.691Z,99.90
2022-10-24T06:51:40.951Z,99.90
2022-10-24T06:54:07.640Z,99.90
2022-10-24T06:56:34.435Z,99.90
2022-10-24T06:59:01.074Z,99.90
2022-10-24T07:01:27.898Z,99.90
2022-10-24T07:03:54.651Z,99.90
2022-10-24T07:06:28.446Z,99.90
2022-10-24T07:08:56.378Z,99.90
2022-10-24T07:11:23.336Z,99.90
2022-10-24T07:13:50.087Z,99.90
2022-10-24T07:16:17.014Z,99.90
2022-10-24T07:18:43.961Z,99.90
2022-10-24T07:21:36.890Z,99.90
2022-10-24T07:24:03.944Z,99.90
2022-10-24T07:26:30.724Z,99.90
2022-10-24T07:31:34.579Z,99.90
2022-10-24T07:34:02.528Z,99.90
2022-10-24T07:36:30.557Z,99.90
2022-10-24T07:38:57.925Z,99.90
2022-10-24T07:41:25.069Z,99.90
2022-10-24T07:43:52.362Z,99.90
2022-10-24T07:46:19.435Z,99.90
2022-10-24T07:48:48.435Z,99.90
2022-10-24T07:51:15.127Z,99.90
2022-10-24T07:53:42.474Z,99.90
2022-10-24T07:56:13.191Z,99.90
2022-10-24T07:58:40.418Z,99.90
2022-10-24T08:01:08.599Z,99.90
2022-10-24T08:03:35.511Z,99.90
2022-10-24T08:06:04.685Z,99.90
2022-10-24T08:08:37.044Z,99.90
2022-10-24T08:11:07.950Z,99.90
2022-10-24T08:13:34.634Z,99.90
2022-10-24T08:16:01.312Z,99.90
2022-10-24T08:18:30.270Z,99.90
2022-10-24T08:20:58.678Z,99.90
2022-10-24T08:23:25.806Z,99.90
2022-10-24T08:25:52.523Z,99.90
2022-10-24T08:28:19.300Z,99.90
2022-10-24T08:30:45.969Z,99.90
2022-10-24T08:33:17.281Z,99.90
2022-10-24T08:35:46.309Z,99.90
2022-10-24T08:38:12.935Z,99.90
2022-10-24T08:40:39.880Z,99.90
2022-10-24T08:43:06.540Z,99.90
2022-10-24T08:45:38.921Z,99.90
2022-10-24T08:48:08.593Z,99.90
2022-10-24T08:50:36.698Z,99.90
2022-10-24T08:53:11.237Z,99.90
2022-10-24T08:55:50.334Z,99.90
2022-10-24T08:58:25.728Z,99.90
2022-10-24T09:00:53.351Z,99.90
2022-10-24T09:03:54.546Z,99.90
2022-10-24T09:06:19.763Z,99.90
2022-10-24T09:08:51.336Z,99.90
2022-10-24T09:11:42.274Z,99.90
2022-10-24T09:14:13.174Z,99.90
2022-10-24T09:16:41.203Z,99.90
2022-10-24T09:19:10.617Z,99.90
2022-10-24T09:21:37.645Z,99.90
2022-10-24T09:24:04.634Z,99.90
2022-10-24T09:26:32.653Z,99.90
2022-10-24T09:28:59.251Z,99.90
2022-10-24T09:31:26.820Z,99.90
2022-10-24T09:33:53.725Z,99.90
2022-10-24T09:36:21.245Z,99.90
2022-10-24T09:38:49.071Z,99.90
2022-10-24T09:41:17.852Z,99.90
2022-10-24T09:43:44.608Z,99.90
2022-10-24T09:46:15.085Z,99.90
2022-10-24T09:48:54.031Z,99.90
2022-10-24T09:51:25.490Z,99.90
2022-10-24T09:54:00.461Z,99.90
2022-10-24T09:56:41.205Z,99.90
2022-10-24T09:59:20.075Z,99.90
2022-10-24T10:01:46.828Z,99.90
2022-10-24T10:04:17.152Z,99.90
2022-10-24T10:06:48.671Z,99.90
2022-10-24T10:09:16.664Z,99.90
2022-10-24T10:11:49.469Z,99.90
2022-10-24T10:14:28.807Z,99.90
2022-10-24T10:17:02.820Z,99.90
2022-10-24T10:19:32.559Z,99.90
2022-10-24T10:22:03.449Z,99.90
2022-10-24T10:24:36.266Z,99.90
2022-10-24T10:27:22.842Z,99.90
2022-10-24T10:29:49.471Z,99.90
2022-10-24T10:32:38.948Z,99.90
2022-10-24T10:35:13.050Z,99.90
2022-10-24T10:37:43.649Z,99.90
2022-10-24T10:40:19.537Z,99.90
2022-10-24T10:42:56.288Z,99.90
2022-10-24T10:45:45.496Z,99.90
2022-10-24T10:48:29.255Z,99.90
2022-10-24T10:50:58.783Z,99.90
2022-10-24T10:53:44.180Z,99.90
2022-10-24T10:56:17.515Z,99.90
2022-10-24T10:58:53.377Z,99.90
2022-10-24T11:01:40.443Z,99.90
2022-10-24T11:04:13.198Z,99.90
2022-10-24T11:06:42.924Z,99.90
2022-10-24T11:09:18.539Z,99.90
2022-10-24T11:12:11.604Z,99.90
2022-10-24T11:14:50.145Z,99.90
2022-10-24T11:17:20.131Z,99.90
2022-10-24T11:19:52.979Z,99.90
2022-10-24T11:22:27.225Z,99.90
2022-10-24T11:25:02.728Z,99.90
2022-10-24T11:27:36.912Z,99.90
2022-10-24T11:30:26.344Z,99.90
2022-10-24T11:32:56.449Z,99.90
2022-10-24T11:35:33.029Z,99.90
2022-10-24T11:38:20.114Z,99.90
2022-10-24T11:40:49.915Z,99.90
2022-10-24T11:43:28.627Z,99.90
2022-10-24T11:45:58.250Z,99.90
2022-10-24T11:48:27.848Z,99.90
2022-10-24T11:50:57.345Z,99.90
2022-10-24T11:53:33.156Z,99.90
2022-10-24T11:56:02.659Z,99.90
2022-10-24T11:58:31.535Z,99.90
2022-10-24T12:01:17.219Z,99.90
2022-10-24T12:04:02.857Z,99.90
2022-10-24T12:06:29.582Z,99.90
2022-10-24T12:09:05.283Z,99.90
2022-10-24T12:11:31.895Z,99.90
2022-10-24T12:13:59.635Z,99.90
2022-10-24T12:16:32.343Z,99.90
2022-10-24T12:19:04.415Z,99.90
2022-10-24T12:21:54.505Z,99.90
2022-10-24T12:24:24.168Z,99.90
2022-10-24T12:26:55.640Z,99.90
2022-10-24T12:29:24.497Z,99.90
2022-10-24T12:31:51.683Z,99.90
2022-10-24T12:34:23.096Z,99.90
2022-10-24T12:37:04.865Z,99.90
2022-10-24T12:39:33.160Z,99.90
2022-10-24T12:42:00.010Z,99.90
2022-10-24T12:44:32.849Z,99.90
2022-10-24T12:47:00.550Z,99.90
2022-10-24T12:49:31.448Z,99.90
2022-10-24T12:51:58.916Z,99.90
2022-10-24T12:54:45.817Z,99.90
2022-10-24T12:57:12.519Z,99.90
2022-10-24T12:59:50.104Z,99.90
2022-10-24T13:02:16.801Z,99.90
2022-10-24T13:04:46.279Z,99.90
2022-10-24T13:07:19.737Z,99.90
2022-10-24T13:09:46.487Z,99.90
2022-10-24T13:12:15.883Z,99.90
2022-10-24T13:14:48.267Z,99.90
2022-10-24T13:17:22.484Z,99.90
2022-10-24T13:20:01.664Z,99.90
2022-10-24T13:22:29.936Z,99.90
2022-10-24T13:24:56.704Z,99.90
2022-10-24T13:27:28.241Z,99.90
2022-10-24T13:29:57.932Z,99.90
2022-10-24T13:32:30.809Z,99.90
2022-10-24T13:34:59.720Z,99.90
2022-10-24T13:37:35.828Z,99.90
2022-10-24T13:40:02.403Z,99.90
2022-10-24T13:42:50.691Z,99.90
2022-10-24T13:45:28.723Z,99.90
2022-10-24T13:48:16.549Z,99.90
2022-10-24T13:50:49.517Z,99.90
2022-10-24T13:53:26.701Z,99.90
2022-10-24T13:56:04.805Z,99.90
2022-10-24T13:58:42.092Z,99.90
2022-10-24T14:01:14.620Z,99.90
2022-10-24T14:03:43.239Z,99.90
2022-10-24T14:06:10.053Z,99.90
2022-10-24T14:08:38.360Z,99.90
2022-10-24T14:11:06.371Z,99.90
2022-10-24T14:13:36.280Z,99.90
2022-10-24T14:16:04.468Z,99.90
2022-10-24T14:18:32.558Z,99.90
2022-10-24T14:21:01.127Z,99.90
2022-10-24T14:23:29.439Z,99.90
2022-10-24T14:26:00.505Z,99.90
2022-10-24T14:28:31.702Z,99.90
2022-10-24T14:31:02.741Z,99.90
2022-10-24T14:33:30.458Z,99.90
2022-10-24T14:35:58.644Z,99.90
2022-10-24T14:38:26.638Z,99.90
2022-10-24T14:41:06.427Z,99.90
2022-10-24T14:43:34.927Z,99.90
2022-10-24T14:46:09.932Z,99.90
2022-10-24T14:48:38.248Z,99.90
2022-10-24T14:51:09.001Z,99.90
2022-10-24T14:53:37.009Z,99.90
2022-10-24T14:56:04.023Z,99.90
2022-10-24T14:58:31.805Z,99.90
2022-10-24T15:00:58.900Z,99.90
2022-10-24T15:03:26.510Z,99.90
2022-10-24T15:05:54.437Z,99.90
2022-10-24T15:08:33.881Z,99.90
2022-10-24T15:11:24.983Z,99.90
2022-10-24T15:14:06.311Z,99.90
2022-10-24T15:16:38.599Z,99.90
2022-10-24T15:19:06.188Z,99.90
2022-10-24T15:21:36.369Z,99.90
2022-10-24T15:24:03.127Z,99.90
2022-10-24T15:26:32.529Z,99.90
2022-10-24T15:29:02.165Z,99.90
2022-10-24T15:31:29.205Z,99.90
2022-10-24T15:33:55.890Z,99.90
2022-10-24T15:36:23.941Z,99.90
2022-10-24T15:38:58.175Z,99.90
2022-10-24T15:41:25.491Z,99.90
2022-10-24T15:43:52.143Z,99.90
2022-10-24T15:46:19.039Z,99.90
2022-10-24T15:48:45.667Z,99.90
2022-10-24T15:51:15.080Z,99.90
2022-10-24T15:53:41.989Z,99.90
2022-10-24T15:56:08.663Z,99.90
2022-10-24T15:58:35.273Z,99.90
2022-10-24T16:01:01.953Z,99.90
2022-10-24T16:03:28.802Z,99.90
2022-10-24T16:05:56.064Z,99.90
2022-10-24T16:08:24.039Z,99.90
2022-10-24T16:10:51.750Z,99.90
2022-10-24T16:13:19.850Z,99.90
2022-10-24T16:15:46.762Z,99.90
2022-10-24T16:18:13.508Z,99.90
2022-10-24T16:20:40.654Z,99.90
2022-10-24T16:23:07.941Z,99.90
2022-10-24T16:25:36.356Z,99.90
2022-10-24T16:28:07.792Z,99.90
2022-10-24T16:30:35.555Z,99.90
2022-10-24T16:33:02.444Z,99.90
2022-10-24T16:35:30.801Z,99.90
2022-10-24T16:37:58.413Z,99.90
2022-10-24T16:40:26.916Z,99.90
2022-10-24T16:42:54.461Z,99.90
2022-10-24T16:45:21.573Z,99.90
2022-10-24T16:47:48.572Z,99.90
2022-10-24T16:50:16.872Z,99.90
2022-10-24T16:52:44.786Z,99.90
2022-10-24T16:55:12.466Z,99.90
2022-10-24T16:57:39.103Z,99.90
2022-10-24T17:00:06.329Z,99.90
2022-10-24T17:02:32.911Z,99.90
2022-10-24T17:04:59.488Z,99.90
2022-10-24T17:07:26.160Z,99.90
2022-10-24T17:09:52.735Z,99.90
2022-10-24T17:12:19.419Z,99.90
2022-10-24T17:14:46.026Z,99.90
2022-10-24T17:17:13.326Z,99.90
2022-10-24T17:19:41.152Z,99.90
2022-10-24T17:22:07.793Z,99.90
2022-10-24T17:24:34.607Z,99.90
2022-10-24T17:27:01.267Z,99.90
2022-10-24T17:29:29.705Z,99.90
2022-10-24T17:31:56.466Z,99.90
2022-10-24T17:34:23.546Z,99.90
2022-10-24T17:36:54.058Z,99.90
2022-10-24T17:41:55.095Z,99.90
2022-10-24T17:44:22.006Z,99.90
2022-10-24T17:46:48.796Z,99.90
2022-10-24T17:49:20.865Z,99.90
2022-10-24T17:51:48.711Z,99.90
2022-10-24T17:54:15.344Z,99.90
2022-10-24T17:56:42.291Z,99.90
2022-10-24T17:59:09.431Z,99.90
2022-10-24T18:01:36.189Z,99.90
2022-10-24T18:04:03.076Z,99.90
2022-10-24T18:06:30.024Z,99.90
2022-10-24T18:08:56.793Z,99.90
2022-10-24T18:11:23.410Z,99.90
2022-10-24T18:13:50.075Z,99.90
2022-10-24T18:16:17.772Z,99.90
2022-10-24T18:18:45.959Z,99.90
2022-10-24T18:23:48.958Z,99.90
2022-10-24T18:26:19.917Z,99.90
2022-10-24T18:28:47.824Z,99.90
2022-10-24T18:31:16.322Z,99.90
2022-10-24T18:33:43.706Z,99.90
2022-10-24T18:36:12.124Z,99.90
2022-10-24T18:38:39.815Z,99.90
2022-10-24T18:41:38.933Z,99.90
2022-10-24T18:44:24.353Z,99.90
2022-10-24T18:46:51.765Z,99.90
2022-10-24T18:49:18.608Z,99.90
2022-10-24T18:51:52.144Z,99.90
2022-10-24T18:56:51.454Z,99.90
2022-10-24T18:59:19.792Z,99.90
2022-10-24T19:01:46.462Z,99.90
2022-10-24T19:04:16.475Z,99.90
2022-10-24T19:06:43.312Z,99.90
2022-10-24T19:09:17.563Z,99.90
2022-10-24T19:11:44.276Z,99.90
2022-10-24T19:14:10.932Z,99.90
2022-10-24T19:16:37.956Z,99.90
2022-10-24T19:19:05.676Z,99.90
2022-10-24T19:21:32.317Z,99.90
2022-10-24T19:23:58.952Z,99.90
2022-10-24T19:26:25.543Z,99.90
2022-10-24T19:28:52.105Z,99.90
2022-10-24T19:31:19.092Z,99.90
2022-10-24T19:33:45.752Z,99.90
2022-10-24T19:36:14.435Z,99.90
2022-10-24T19:38:45.036Z,99.90
2022-10-24T19:41:11.772Z,99.90
2022-10-24T19:43:38.481Z,99.90
2022-10-24T19:46:18.829Z,99.90
2022-10-24T19:48:48.937Z,99.90
2022-10-24T19:51:16.646Z,99.90
2022-10-24T19:53:43.743Z,99.90
2022-10-24T19:56:31.292Z,99.90
2022-10-24T19:58:57.868Z,99.90
2022-10-24T20:01:25.652Z,99.90
2022-10-24T20:03:52.528Z,99.90
2022-10-24T20:06:19.574Z,99.90
2022-10-24T20:08:47.044Z,99.90
2022-10-24T20:11:15.394Z,99.90
2022-10-24T20:13:42.349Z,99.90
2022-10-24T20:16:10.377Z,99.90
2022-10-24T20:18:37.545Z,99.90
2022-10-24T20:21:05.169Z,99.90
2022-10-24T20:23:32.170Z,99.90
2022-10-24T20:26:00.543Z,99.90
2022-10-24T20:28:27.176Z,99.90
2022-10-24T20:30:54.165Z,99.90
2022-10-24T20:33:20.753Z,99.90
2022-10-24T20:35:47.437Z,99.90
2022-10-24T20:38:14.001Z,99.90
2022-10-24T20:40:40.585Z,99.90
2022-10-24T20:43:07.326Z,99.90
2022-10-24T20:45:36.909Z,99.90
2022-10-24T20:48:03.551Z,99.90
2022-10-24T20:50:30.933Z,99.90
2022-10-24T20:52:57.637Z,99.90
2022-10-24T20:55:39.391Z,99.90
2022-10-24T20:58:11.647Z,99.90
2022-10-24T21:00:38.404Z,99.90
2022-10-24T21:03:05.009Z,99.90
2022-10-24T21:05:31.599Z,99.90
2022-10-24T21:07:58.181Z,99.90
2022-10-24T21:10:25.637Z,99.90
2022-10-24T21:12:52.578Z,99.90
2022-10-24T21:15:19.404Z,99.90
2022-10-24T21:17:46.246Z,99.90
2022-10-24T21:20:13.061Z,99.90
2022-10-24T21:22:39.810Z,99.90
2022-10-24T21:25:06.582Z,99.90
2022-10-24T21:27:33.290Z,99.90
2022-10-24T21:29:59.929Z,99.90
2022-10-24T21:32:26.510Z,99.90
2022-10-24T21:34:53.076Z,99.90
2022-10-24T21:37:19.721Z,99.90
2022-10-24T21:39:46.319Z,99.90
2022-10-24T21:42:13.069Z,99.90
2022-10-24T21:44:39.693Z,99.90
2022-10-24T21:47:06.263Z,99.90
2022-10-24T21:49:32.879Z,99.90
2022-10-24T21:51:59.532Z,99.90
2022-10-24T21:54:26.250Z,99.90
2022-10-24T21:56:52.898Z,99.90
2022-10-24T21:59:20.173Z,99.90
2022-10-24T22:01:47.397Z,99.90
2022-10-24T22:04:14.416Z,99.90
2022-10-24T22:06:41.607Z,99.90
2022-10-24T22:09:11.051Z,99.90
2022-10-24T22:11:37.738Z,99.90
2022-10-24T22:14:05.339Z,99.90
2022-10-24T22:16:32.462Z,99.90
2022-10-24T22:19:00.898Z,99.90
2022-10-24T22:21:34.887Z,99.90
2022-10-24T22:24:03.244Z,99.90
2022-10-24T22:26:30.272Z,99.90
2022-10-24T22:28:56.919Z,99.90
2022-10-24T22:31:24.285Z,99.90
2022-10-24T22:33:51.291Z,99.90
2022-10-24T22:36:24.023Z,99.90
2022-10-24T22:38:53.930Z,99.90
2022-10-24T22:41:21.272Z,99.90
2022-10-24T22:43:48.135Z,99.90
2022-10-24T22:46:33.316Z,99.90
2022-10-24T22:49:12.729Z,99.90
2022-10-24T22:51:39.465Z,99.90
2022-10-24T22:54:09.372Z,99.90
2022-10-24T22:56:36.762Z,99.90
2022-10-24T22:59:03.517Z,99.90
2022-10-24T23:01:48.759Z,99.90
2022-10-24T23:04:33.957Z,99.90
2022-10-24T23:07:12.675Z,99.90
2022-10-24T23:09:39.454Z,99.90
2022-10-24T23:12:11.025Z,99.90
2022-10-24T23:14:37.741Z,99.90
2022-10-24T23:17:04.496Z,99.90
2022-10-24T23:19:31.820Z,99.90
2022-10-24T23:22:00.616Z,99.90
2022-10-24T23:24:28.393Z,99.90
2022-10-24T23:26:58.224Z,99.90
2022-10-24T23:29:29.583Z,99.90
2022-10-24T23:31:56.321Z,99.90
2022-10-24T23:34:23.097Z,99.90
2022-10-24T23:36:50.039Z,99.90
2022-10-24T23:39:16.823Z,99.90
2022-10-24T23:41:43.643Z,99.90
2022-10-24T23:44:11.160Z,99.90
2022-10-24T23:46:38.811Z,99.90
2022-10-24T23:49:20.716Z,99.90
2022-10-24T23:51:52.931Z,99.90
2022-10-24T23:54:24.068Z,99.90
2022-10-24T23:56:50.835Z,99.90
2022-10-24T23:59:17.420Z,99.90
